Time;durP1;ratioP1;P1;durP2;ratioP2;P2;SDS_P1;SDS_P2;PMS_P1;PMS_P2;Temp;Humidity;BMP_temperature;BMP_pressure;BME280_temperature;BME280_humidity;BME280_pressure;Samples;Min_cycle;Max_cycle;Signal;HPM_P1;HPM_P2
2023/11/27 00:01:04;;;;;;;;;;;;;;;11.67;73.41;99937.41;7355299;19;19933;-62
2023/11/27 00:03:29;;;;;;;;;;;;;;;11.68;73.12;99933.03;7360703;19;19930;-62
2023/11/27 00:05:54;;;;;;;;;;;;;;;11.67;73.36;99932.19;7355795;19;19919;-62
2023/11/27 00:08:19;;;;;;;;;;;;;;;11.67;73.36;99926.94;7363961;19;19986;-62
2023/11/27 00:10:45;;;;;;;;;;;;;;;11.67;73.52;99921.72;7363127;19;19915;-62
2023/11/27 00:13:10;;;;;;;;;;;;;;;11.67;73.16;99919.09;7360935;19;19915;-62
2023/11/27 00:15:36;;;;;;;;;;;;;;;11.68;73.35;99922.56;7360007;19;19974;-62
2023/11/27 00:18:01;;;;;;;;;;;;;;;11.68;73.07;99912.94;7358048;19;19938;-62
2023/11/27 00:20:27;;;;;;;;;;;;;;;11.68;73.46;99907.72;7359983;19;19923;-62
2023/11/27 00:22:53;;;;;;;;;;;;;;;11.67;73.49;99906.03;7360219;19;19918;-62
2023/11/27 00:25:19;;;;;;;;;;;;;;;11.68;73.16;99910.34;7346531;19;20697;-62
2023/11/27 00:27:45;;;;;;;;;;;;;;;11.68;73.34;99905.09;7363893;19;20026;-62
2023/11/27 00:30:10;;;;;;;;;;;;;;;11.70;73.40;99910.28;7354379;19;19986;-62
2023/11/27 00:32:36;;;;;;;;;;;;;;;11.68;73.53;99901.66;7361982;19;19918;-62
2023/11/27 00:35:01;;;;;;;;;;;;;;;11.68;73.38;99909.50;7358600;19;19915;-62
2023/11/27 00:37:27;;;;;;;;;;;;;;;11.67;73.02;99899.94;7363147;19;19959;-62
2023/11/27 00:39:52;;;;;;;;;;;;;;;11.67;73.24;99892.09;7352043;19;20416;-61
2023/11/27 00:42:18;;;;;;;;;;;;;;;11.67;73.12;99892.94;7366940;19;20555;-61
2023/11/27 00:44:43;;;;;;;;;;;;;;;11.67;73.47;99885.09;7338715;19;19922;-61
2023/11/27 00:47:10;;;;;;;;;;;;;;;11.67;73.07;99887.72;7363610;19;19925;-62
2023/11/27 00:49:35;;;;;;;;;;;;;;;11.67;73.53;99879.88;7361252;19;19919;-62
2023/11/27 00:52:00;;;;;;;;;;;;;;;11.67;73.49;99882.50;7356156;19;19930;-61
2023/11/27 00:54:25;;;;;;;;;;;;;;;11.67;73.59;99873.78;7362665;19;19930;-63
2023/11/27 00:56:51;;;;;;;;;;;;;;;11.65;73.52;99876.44;7357421;19;19939;-62
2023/11/27 00:59:16;;;;;;;;;;;;;;;11.66;73.16;99875.56;7365413;19;20510;-61
2023/11/27 01:01:41;;;;;;;;;;;;;;;11.65;73.27;99878.22;7352539;19;20918;-62
2023/11/27 01:04:06;;;;;;;;;;;;;;;11.66;73.35;99874.72;7359381;19;19918;-62
2023/11/27 01:06:32;;;;;;;;;;;;;;;11.64;73.17;99872.13;7356014;19;19915;-62
2023/11/27 01:08:57;;;;;;;;;;;;;;;11.65;73.53;99876.44;7357654;19;19935;-62
2023/11/27 01:11:22;;;;;;;;;;;;;;;11.61;73.46;99874.91;7357683;19;20532;-62
2023/11/27 01:13:47;;;;;;;;;;;;;;;11.65;73.19;99871.22;7361705;19;20002;-62
2023/11/27 01:16:13;;;;;;;;;;;;;;;11.64;73.48;99874.75;7353294;19;19931;-62
2023/11/27 01:18:38;;;;;;;;;;;;;;;11.64;73.39;99873.91;7351805;19;19919;-61
2023/11/27 01:21:05;;;;;;;;;;;;;;;11.64;73.22;99859.06;7362058;19;20315;-61
2023/11/27 01:23:31;;;;;;;;;;;;;;;11.62;73.50;99871.38;7359243;19;20350;-61
2023/11/27 01:25:56;;;;;;;;;;;;;;;11.63;73.34;99866.97;7360705;19;20260;-62
2023/11/27 01:28:22;;;;;;;;;;;;;;;11.62;73.37;99868.75;7359801;19;19926;-62
2023/11/27 01:30:47;;;;;;;;;;;;;;;11.63;73.38;99866.97;7357710;19;19930;-61
2023/11/27 01:33:12;;;;;;;;;;;;;;;11.62;73.39;99868.75;7359675;19;20935;-62
2023/11/27 01:35:38;;;;;;;;;;;;;;;11.64;73.77;99868.69;7361355;19;19910;-61
2023/11/27 01:38:03;;;;;;;;;;;;;;;11.63;73.57;99861.75;7366089;19;19935;-62
2023/11/27 01:40:28;;;;;;;;;;;;;;;11.62;73.55;99860.91;7366007;19;19923;-61
2023/11/27 01:42:53;;;;;;;;;;;;;;;11.62;73.64;99860.91;7368153;19;19919;-62
2023/11/27 01:45:19;;;;;;;;;;;;;;;11.62;73.48;99866.13;7363922;19;19919;-62
2023/11/27 01:47:44;;;;;;;;;;;;;;;11.61;73.19;99858.34;7367691;19;19975;-61
2023/11/27 01:50:10;;;;;;;;;;;;;;;11.61;73.56;99858.34;7365716;19;19918;-62
2023/11/27 01:52:38;;;;;;;;;;;;;;;11.59;73.38;99863.63;7363899;19;21143;-62
2023/11/27 01:55:04;;;;;;;;;;;;;;;11.59;73.53;99855.78;7363332;19;20475;-62
2023/11/27 01:57:30;;;;;;;;;;;;;;;11.58;73.68;99858.47;7364134;19;20308;-62
2023/11/27 01:59:55;;;;;;;;;;;;;;;11.57;73.60;99857.63;7362557;19;19932;-62
2023/11/27 02:02:21;;;;;;;;;;;;;;;11.57;73.64;99852.38;7354881;19;20396;-62
2023/11/27 02:04:46;;;;;;;;;;;;;;;11.56;73.23;99853.31;7364283;19;19926;-62
2023/11/27 02:07:12;;;;;;;;;;;;;;;11.55;73.74;99854.19;7362782;19;19978;-62
2023/11/27 02:09:38;;;;;;;;;;;;;;;11.56;73.28;99853.31;7362780;19;20657;-62
2023/11/27 02:12:03;;;;;;;;;;;;;;;11.56;73.70;99847.22;7369225;19;19919;-62
2023/11/27 02:14:28;;;;;;;;;;;;;;;11.55;73.74;99851.59;7349346;19;20033;-62
2023/11/27 02:16:54;;;;;;;;;;;;;;;11.54;73.63;99847.28;7365908;19;19919;-62
2023/11/27 02:19:19;;;;;;;;;;;;;;;11.55;73.45;99848.13;7359893;19;19926;-62
2023/11/27 02:21:45;;;;;;;;;;;;;;;11.54;73.79;99842.03;7366967;19;19925;-62
2023/11/27 02:24:10;;;;;;;;;;;;;;;11.54;73.40;99846.44;7365453;19;20245;-62
2023/11/27 02:26:35;;;;;;;;;;;;;;;11.55;73.83;99846.34;7346992;19;19926;-61
2023/11/27 02:29:01;;;;;;;;;;;;;;;11.54;73.82;99842.03;7362494;19;19939;-61
2023/11/27 02:31:26;;;;;;;;;;;;;;;11.55;73.77;99837.66;7367959;19;19955;-61
2023/11/27 02:33:52;;;;;;;;;;;;;;;11.55;73.89;99838.50;7361035;19;19918;-61
2023/11/27 02:36:18;;;;;;;;;;;;;;;11.54;73.82;99831.59;7362750;19;19918;-62
2023/11/27 02:38:44;;;;;;;;;;;;;;;11.55;73.57;99828.06;7364314;19;19922;-62
2023/11/27 02:41:10;;;;;;;;;;;;;;;11.55;73.43;99833.28;7366115;19;20614;-62
2023/11/27 02:43:35;;;;;;;;;;;;;;;11.54;73.80;99836.81;7363087;19;19935;-62
2023/11/27 02:46:05;;;;;;;;;;;;;;;11.54;73.46;99831.59;7363616;19;19930;-62
2023/11/27 02:48:30;;;;;;;;;;;;;;;11.55;73.95;99825.44;7365707;19;19990;-62
2023/11/27 02:50:55;;;;;;;;;;;;;;;11.55;73.85;99829.81;7364532;19;20026;-62
2023/11/27 02:53:22;;;;;;;;;;;;;;;11.53;73.41;99829.88;7352128;19;19926;-63
2023/11/27 02:55:47;;;;;;;;;;;;;;;11.54;73.78;99830.75;7360990;19;19930;-62
2023/11/27 02:58:12;;;;;;;;;;;;;;;11.53;73.65;99824.66;7366172;19;19907;-61
2023/11/27 03:00:37;;;;;;;;;;;;;;;11.52;73.75;99817.75;7376218;19;19922;-61
2023/11/27 03:03:03;;;;;;;;;;;;;;;11.51;73.30;99810.81;7368377;19;19922;-62
2023/11/27 03:05:28;;;;;;;;;;;;;;;11.50;73.82;99810.84;7366844;19;19947;-62
2023/11/27 03:07:53;;;;;;;;;;;;;;;11.50;73.32;99813.47;7367975;19;19933;-61
2023/11/27 03:10:19;;;;;;;;;;;;;;;11.48;73.74;99810.06;7365439;19;20310;-62
2023/11/27 03:12:44;;;;;;;;;;;;;;;11.47;73.47;99809.22;7367531;19;19923;-62
2023/11/27 03:15:09;;;;;;;;;;;;;;;11.47;73.52;99809.22;7366283;19;20385;-62
2023/11/27 03:17:35;;;;;;;;;;;;;;;11.45;73.63;99805.81;7366551;19;20865;-62
2023/11/27 03:20:00;;;;;;;;;;;;;;;11.44;73.65;99804.13;7362383;19;19929;-62
2023/11/27 03:22:25;;;;;;;;;;;;;;;11.41;73.83;99802.50;7358306;19;19919;-62
2023/11/27 03:24:51;;;;;;;;;;;;;;;11.42;73.66;99811.19;7367673;19;19931;-61
2023/11/27 03:27:16;;;;;;;;;;;;;;;11.41;73.83;99810.34;7361232;19;19929;-62
2023/11/27 03:29:41;;;;;;;;;;;;;;;11.41;73.43;99812.09;7367182;19;19923;-62
2023/11/27 03:32:07;;;;;;;;;;;;;;;11.41;73.44;99809.47;7364589;19;19926;-62
2023/11/27 03:34:32;;;;;;;;;;;;;;;11.40;73.47;99810.38;7360246;19;19914;-62
2023/11/27 03:36:58;;;;;;;;;;;;;;;11.39;73.77;99806.06;7367187;19;19923;-62
2023/11/27 03:39:23;;;;;;;;;;;;;;;11.38;73.77;99802.59;7321470;19;19907;-61
2023/11/27 03:41:52;;;;;;;;;;;;;;;11.37;73.60;99807.91;7375902;19;19926;-62
2023/11/27 03:44:17;;;;;;;;;;;;;;;11.37;73.49;99810.50;7370464;19;19934;-62
2023/11/27 03:46:42;;;;;;;;;;;;;;;11.36;73.46;99811.44;7364628;19;20846;-62
2023/11/27 03:49:08;;;;;;;;;;;;;;;11.36;73.78;99808.81;7361904;19;19922;-62
2023/11/27 03:51:33;;;;;;;;;;;;;;;11.34;73.83;99803.63;7364502;19;19922;-62
2023/11/27 03:53:58;;;;;;;;;;;;;;;11.35;73.87;99807.09;7365180;19;19926;-62
2023/11/27 03:56:23;;;;;;;;;;;;;;;11.35;73.57;99804.47;7363409;19;20475;-62
2023/11/27 03:58:49;;;;;;;;;;;;;;;11.36;73.51;99808.81;7362675;19;19927;-62
2023/11/27 04:01:15;;;;;;;;;;;;;;;11.36;73.40;99811.44;7365062;19;19926;-61
2023/11/27 04:03:40;;;;;;;;;;;;;;;11.35;73.57;99804.47;7362300;19;19921;-62
2023/11/27 04:06:07;;;;;;;;;;;;;;;11.33;73.62;99801.09;7364021;19;21866;-62
2023/11/27 04:08:32;;;;;;;;;;;;;;;11.34;73.56;99805.41;7364068;19;19918;-62
2023/11/27 04:10:57;;;;;;;;;;;;;;;11.32;73.74;99800.25;7371152;19;19938;-62
2023/11/27 04:13:23;;;;;;;;;;;;;;;11.31;73.93;99798.53;7367572;19;19911;-62
2023/11/27 04:15:48;;;;;;;;;;;;;;;11.32;73.58;99794.16;7363057;19;20006;-61
2023/11/27 04:18:13;;;;;;;;;;;;;;;11.31;73.97;99800.31;7343686;19;22287;-62
2023/11/27 04:20:39;;;;;;;;;;;;;;;11.31;73.73;99797.69;7366211;19;20020;-62
2023/11/27 04:23:04;;;;;;;;;;;;;;;11.30;73.83;99793.34;7359738;19;19932;-62
2023/11/27 04:25:30;;;;;;;;;;;;;;;11.30;73.71;99785.50;7364685;19;19918;-62
2023/11/27 04:27:55;;;;;;;;;;;;;;;11.29;73.89;99791.66;7364336;19;20430;-62
2023/11/27 04:30:21;;;;;;;;;;;;;;;11.29;73.98;99789.03;7367676;19;19996;-62
2023/11/27 04:32:46;;;;;;;;;;;;;;;11.30;73.60;99786.38;7369985;19;19938;-61
2023/11/27 04:35:12;;;;;;;;;;;;;;;11.29;73.93;99789.91;7370548;19;19942;-62
2023/11/27 04:37:38;;;;;;;;;;;;;;;11.28;73.89;99779.50;7358529;19;19998;-62
2023/11/27 04:40:03;;;;;;;;;;;;;;;11.28;73.67;99792.56;7363538;19;20002;-62
2023/11/27 04:42:32;;;;;;;;;;;;;;;11.26;73.59;99778.72;7353395;19;20024;-62
2023/11/27 04:44:58;;;;;;;;;;;;;;;11.24;73.71;99783.16;7348128;19;19922;-62
2023/11/27 04:47:23;;;;;;;;;;;;;;;11.24;73.48;99775.31;7356905;19;20362;-62
2023/11/27 04:49:48;;;;;;;;;;;;;;;11.23;73.57;99778.84;7362073;19;19922;-62
2023/11/27 04:52:14;;;;;;;;;;;;;;;11.22;73.61;99783.22;7361990;19;19918;-62
2023/11/27 04:54:39;;;;;;;;;;;;;;;11.20;73.65;99785.03;7364453;19;20002;-62
2023/11/27 04:57:06;;;;;;;;;;;;;;;11.21;73.94;99786.75;7366773;19;20342;-62
2023/11/27 04:59:31;;;;;;;;;;;;;;;11.18;73.70;99785.09;7363453;19;20774;-62
2023/11/27 05:01:56;;;;;;;;;;;;;;;11.18;73.79;99777.25;7362625;19;19926;-62
2023/11/27 05:04:23;;;;;;;;;;;;;;;11.19;73.61;99780.72;7359212;19;19923;-62
2023/11/27 05:06:48;;;;;;;;;;;;;;;11.16;73.85;99784.31;7370896;19;20289;-62
2023/11/27 05:09:16;;;;;;;;;;;;;;;11.18;73.84;99786.88;7368717;19;19914;-61
2023/11/27 05:11:41;;;;;;;;;;;;;;;11.16;73.52;99779.09;7361145;19;19968;-62
2023/11/27 05:14:06;;;;;;;;;;;;;;;11.12;73.82;99766.22;7362048;19;19922;-61
2023/11/27 05:16:31;;;;;;;;;;;;;;;11.18;74.02;99773.81;7363365;19;19922;-62
2023/11/27 05:18:57;;;;;;;;;;;;;;;11.16;73.55;99773.88;7361163;19;20034;-62
2023/11/27 05:21:22;;;;;;;;;;;;;;;11.16;73.91;99763.41;7366983;19;19914;-62
2023/11/27 05:23:47;;;;;;;;;;;;;;;11.15;73.45;99764.34;7373647;19;19978;-62
2023/11/27 05:26:13;;;;;;;;;;;;;;;11.15;73.92;99759.13;7364948;19;21070;-62
2023/11/27 05:28:39;;;;;;;;;;;;;;;11.15;73.95;99761.72;7368656;19;19954;-63
2023/11/27 05:31:08;;;;;;;;;;;;;;;11.14;73.84;99765.22;7359058;19;19919;-62
2023/11/27 05:33:33;;;;;;;;;;;;;;;11.13;73.77;99757.47;7360679;19;19986;-61
2023/11/27 05:35:59;;;;;;;;;;;;;;;11.13;73.95;99753.06;7361178;19;20022;-62
2023/11/27 05:38:24;;;;;;;;;;;;;;;11.11;74.00;99744.47;7365641;19;19948;-62
2023/11/27 05:40:52;;;;;;;;;;;;;;;11.12;73.77;99756.59;7360888;19;20023;-61
2023/11/27 05:43:17;;;;;;;;;;;;;;;11.10;73.79;99745.38;7364565;19;19915;-62
2023/11/27 05:45:43;;;;;;;;;;;;;;;11.09;73.70;99751.50;7356709;19;19924;-62
2023/11/27 05:48:09;;;;;;;;;;;;;;;11.08;73.80;99744.56;7356815;19;19915;-62
2023/11/27 05:50:34;;;;;;;;;;;;;;;11.09;73.84;99748.03;7357040;19;19918;-62
2023/11/27 05:53:00;;;;;;;;;;;;;;;11.09;74.03;99746.28;7363423;19;19918;-62
2023/11/27 05:55:25;;;;;;;;;;;;;;;11.09;73.69;99735.81;7351217;19;19918;-62
2023/11/27 05:57:50;;;;;;;;;;;;;;;11.08;73.68;99728.91;7362171;19;20383;-62
2023/11/27 06:00:16;;;;;;;;;;;;;;;11.08;73.88;99728.06;7360912;19;19934;-62
2023/11/27 06:02:41;;;;;;;;;;;;;;;11.08;74.00;99718.44;7364838;19;19919;-62
2023/11/27 06:05:07;;;;;;;;;;;;;;;11.08;73.84;99710.59;7356561;19;19919;-61
2023/11/27 06:07:33;;;;;;;;;;;;;;;11.08;73.79;99713.22;7363197;19;20750;-61
2023/11/27 06:09:58;;;;;;;;;;;;;;;11.08;74.07;99723.66;7358676;19;19918;-62
2023/11/27 06:12:25;;;;;;;;;;;;;;;11.08;73.95;99734.13;7357167;19;20540;-62
2023/11/27 06:14:50;;;;;;;;;;;;;;;11.08;74.12;99749.81;7357480;19;19925;-62
2023/11/27 06:17:16;;;;;;;;;;;;;;;11.08;73.78;99755.03;7364441;19;19915;-62
2023/11/27 06:19:41;;;;;;;;;;;;;;;11.09;73.91;99766.31;7355176;19;20542;-62
2023/11/27 06:22:06;;;;;;;;;;;;;;;11.08;73.96;99765.47;7365753;19;19918;-62
2023/11/27 06:24:31;;;;;;;;;;;;;;;11.08;74.23;99757.63;7366488;19;19937;-62
2023/11/27 06:26:57;;;;;;;;;;;;;;;11.09;74.27;99753.25;7362132;19;20778;-62
2023/11/27 06:29:22;;;;;;;;;;;;;;;11.09;74.11;99750.66;7374707;19;20255;-62
2023/11/27 06:31:48;;;;;;;;;;;;;;;10.99;74.25;99734.47;7363824;19;19910;-62
2023/11/27 06:34:13;;;;;;;;;;;;;;;11.10;74.08;99752.34;7366609;19;19952;-62
2023/11/27 06:36:38;;;;;;;;;;;;;;;11.10;73.78;99758.44;7368984;19;19922;-62
2023/11/27 06:39:03;;;;;;;;;;;;;;;11.11;74.18;99754.06;7362235;19;20645;-62
2023/11/27 06:41:30;;;;;;;;;;;;;;;11.10;74.15;99748.00;7364204;19;19919;-62
2023/11/27 06:43:55;;;;;;;;;;;;;;;11.10;73.88;99753.22;7359220;19;19923;-62
2023/11/27 06:46:21;;;;;;;;;;;;;;;11.11;74.19;99748.84;7372398;19;19945;-62
2023/11/27 06:48:46;;;;;;;;;;;;;;;11.11;74.20;99746.22;7370884;19;19947;-61
2023/11/27 06:51:12;;;;;;;;;;;;;;;11.12;74.01;99750.53;7369265;19;19926;-62
2023/11/27 06:53:37;;;;;;;;;;;;;;;11.13;73.88;99742.63;7366272;19;19919;-62
2023/11/27 06:56:02;;;;;;;;;;;;;;;11.10;73.94;99742.78;7360465;19;19911;-62
2023/11/27 06:58:30;;;;;;;;;;;;;;;11.14;74.22;99753.94;7364237;19;19927;-62
2023/11/27 07:00:55;;;;;;;;;;;;;;;11.14;74.30;99754.78;7366930;19;19922;-62
2023/11/27 07:03:20;;;;;;;;;;;;;;;11.13;74.08;99763.53;7363239;19;19926;-61
2023/11/27 07:05:46;;;;;;;;;;;;;;;11.13;73.85;99758.31;7366525;19;19915;-62
2023/11/27 07:08:11;;;;;;;;;;;;;;;11.13;74.25;99763.53;7369114;19;19958;-61
2023/11/27 07:10:36;;;;;;;;;;;;;;;11.15;74.23;99760.84;7357063;19;20758;-62
2023/11/27 07:13:01;;;;;;;;;;;;;;;11.13;74.15;99768.75;7363250;19;19919;-62
2023/11/27 07:15:28;;;;;;;;;;;;;;;11.15;74.12;99766.94;7363717;19;19947;-62
2023/11/27 07:17:53;;;;;;;;;;;;;;;11.14;74.25;99765.22;7367155;19;20552;-62
2023/11/27 07:20:19;;;;;;;;;;;;;;;11.15;74.15;99766.94;7367802;19;20356;-61
2023/11/27 07:22:48;;;;;;;;;;;;;;;11.16;73.82;99762.56;7367426;19;19933;-61
2023/11/27 07:25:16;;;;;;;;;;;;;;;11.16;74.05;99765.19;7363051;19;21982;-62
2023/11/27 07:27:48;;;;;;;;;;;;;;;11.16;74.02;99773.88;7368116;19;20319;-62
2023/11/27 07:30:14;;;;;;;;;;;;;;;11.16;74.02;99768.66;7361737;19;20348;-62
2023/11/27 07:32:40;;;;;;;;;;;;;;;11.17;73.98;99778.19;7363455;19;19939;-62
2023/11/27 07:35:06;;;;;;;;;;;;;;;11.16;74.28;99778.25;7362837;19;20402;-62
2023/11/27 07:37:31;;;;;;;;;;;;;;;11.15;73.93;99782.63;7360437;19;20328;-62
2023/11/27 07:39:56;;;;;;;;;;;;;;;11.16;74.13;99783.47;7363873;19;19950;-62
2023/11/27 07:42:22;;;;;;;;;;;;;;;11.15;74.30;99787.84;7365375;19;20718;-62
2023/11/27 07:44:48;;;;;;;;;;;;;;;11.14;74.26;99786.13;7363932;19;19922;-62
2023/11/27 07:47:13;;;;;;;;;;;;;;;11.16;73.95;99797.38;7362968;19;19935;-62
2023/11/27 07:49:38;;;;;;;;;;;;;;;11.15;74.17;99793.09;7362174;19;19918;-62
2023/11/27 07:52:04;;;;;;;;;;;;;;;11.15;73.83;99803.53;7355766;19;19918;-62
2023/11/27 07:54:31;;;;;;;;;;;;;;;11.16;74.02;99800.00;7365893;19;19966;-61
2023/11/27 07:56:56;;;;;;;;;;;;;;;11.16;74.22;99800.00;7362648;19;20580;-62
2023/11/27 07:59:21;;;;;;;;;;;;;;;11.16;74.27;99805.22;7364872;19;19911;-62
2023/11/27 08:01:46;;;;;;;;;;;;;;;11.16;74.19;99807.84;7353110;19;19929;-61
2023/11/27 08:04:12;;;;;;;;;;;;;;;11.16;74.19;99820.91;7357372;19;19926;-62
2023/11/27 08:06:37;;;;;;;;;;;;;;;11.17;74.02;99819.16;7365168;19;19915;-61
2023/11/27 08:09:04;;;;;;;;;;;;;;;11.14;73.96;99822.72;7364385;19;19911;-62
2023/11/27 08:11:33;;;;;;;;;;;;;;;11.15;73.97;99824.44;7339450;19;19982;-62
2023/11/27 08:13:58;;;;;;;;;;;;;;;11.14;73.95;99832.31;7361739;19;19915;-62
2023/11/27 08:16:25;;;;;;;;;;;;;;;11.13;74.21;99826.25;7357447;19;19937;-62
2023/11/27 08:18:50;;;;;;;;;;;;;;;11.13;74.21;99833.22;7367731;19;19919;-62
2023/11/27 08:21:15;;;;;;;;;;;;;;;11.11;74.14;99835.06;7358427;19;19934;-62
2023/11/27 08:23:44;;;;;;;;;;;;;;;11.10;73.98;99836.84;7361636;19;19931;-62
2023/11/27 08:26:10;;;;;;;;;;;;;;;11.09;74.13;99832.50;7360238;19;19927;-62
2023/11/27 08:28:36;;;;;;;;;;;;;;;11.08;73.72;99829.94;7357138;19;19925;-62
2023/11/27 08:31:01;;;;;;;;;;;;;;;11.07;73.69;99830.88;7364677;19;19974;-61
2023/11/27 08:33:26;;;;;;;;;;;;;;;11.05;73.92;99828.31;7371711;19;19923;-62
2023/11/27 08:35:52;;;;;;;;;;;;;;;11.04;73.96;99826.59;7357077;19;19947;-62
2023/11/27 08:38:17;;;;;;;;;;;;;;;11.02;73.71;99823.19;7346110;19;19922;-62
2023/11/27 08:40:43;;;;;;;;;;;;;;;11.00;73.64;99838.09;7367026;19;20008;-62
2023/11/27 08:43:08;;;;;;;;;;;;;;;10.99;73.69;99844.19;7365115;19;19919;-62
2023/11/27 08:45:33;;;;;;;;;;;;;;;10.97;73.63;99846.03;7356042;19;19918;-62
2023/11/27 08:48:00;;;;;;;;;;;;;;;10.96;73.94;99846.94;7336766;19;19918;-62
2023/11/27 08:50:32;;;;;;;;;;;;;;;10.95;74.06;99847.88;7360885;19;20693;-61
2023/11/27 08:52:58;;;;;;;;;;;;;;;10.95;73.59;99846.97;7358477;19;20339;-62
2023/11/27 08:55:28;;;;;;;;;;;;;;;10.93;73.96;99851.44;7362411;19;19911;-61
2023/11/27 08:57:53;;;;;;;;;;;;;;;10.93;73.60;99854.88;7361743;19;19915;-62
2023/11/27 09:00:19;;;;;;;;;;;;;;;10.92;73.91;99863.66;7360829;19;19922;-61
2023/11/27 09:02:44;;;;;;;;;;;;;;;10.91;73.76;99862.78;7363634;19;19914;-61
2023/11/27 09:05:10;;;;;;;;;;;;;;;10.91;73.51;99872.41;7361082;19;19993;-62
2023/11/27 09:07:35;;;;;;;;;;;;;;;10.89;73.54;99861.97;7362119;19;19932;-62
2023/11/27 09:10:02;;;;;;;;;;;;;;;10.88;73.49;99868.13;7360642;19;19970;-62
2023/11/27 09:12:28;;;;;;;;;;;;;;;10.88;73.45;99872.50;7362304;19;19937;-62
2023/11/27 09:14:53;;;;;;;;;;;;;;;10.88;73.75;99882.94;7362794;19;19934;-62
2023/11/27 09:17:18;;;;;;;;;;;;;;;10.87;73.39;99876.03;7359432;19;19924;-61
2023/11/27 09:19:46;;;;;;;;;;;;;;;10.85;73.41;99877.84;7359806;19;19929;-61
2023/11/27 09:22:12;;;;;;;;;;;;;;;10.86;73.77;99890.00;7364490;19;19922;-61
2023/11/27 09:24:38;;;;;;;;;;;;;;;10.86;73.42;99890.00;7364705;19;19943;-61
2023/11/27 09:27:04;;;;;;;;;;;;;;;10.85;73.59;99890.91;7356285;19;19919;-61
2023/11/27 09:29:29;;;;;;;;;;;;;;;10.84;73.76;99879.59;7357940;19;20467;-62
2023/11/27 09:31:55;;;;;;;;;;;;;;;10.85;73.35;99880.47;7360753;19;19923;-61
2023/11/27 09:34:20;;;;;;;;;;;;;;;10.83;73.36;99880.50;7361807;19;19918;-62
2023/11/27 09:36:45;;;;;;;;;;;;;;;10.85;73.58;99888.31;7365503;19;19918;-62
2023/11/27 09:39:11;;;;;;;;;;;;;;;10.85;73.69;99889.16;7346970;19;19931;-62
2023/11/27 09:41:36;;;;;;;;;;;;;;;10.85;73.65;99893.53;7359737;19;20763;-62
2023/11/27 09:44:02;;;;;;;;;;;;;;;10.87;73.68;99902.13;7350959;19;19929;-61
2023/11/27 09:46:31;;;;;;;;;;;;;;;10.88;73.47;99893.41;7363844;19;20383;-62
2023/11/27 09:48:57;;;;;;;;;;;;;;;10.91;73.53;99906.34;7359713;19;20267;-62
2023/11/27 09:51:23;;;;;;;;;;;;;;;10.94;73.93;99902.75;7365503;19;19923;-62
2023/11/27 09:53:50;;;;;;;;;;;;;;;10.97;73.95;99913.97;7358747;19;19919;-62
2023/11/27 09:56:17;;;;;;;;;;;;;;;11.01;73.55;99914.69;7364257;19;20351;-62
2023/11/27 09:58:42;;;;;;;;;;;;;;;11.03;73.61;99916.34;7337922;19;19986;-62
2023/11/27 10:01:13;;;;;;;;;;;;;;;11.05;73.76;99922.38;7371904;19;20010;-62
2023/11/27 10:03:39;;;;;;;;;;;;;;;11.07;73.76;99920.53;7361114;19;19914;-62
2023/11/27 10:06:07;;;;;;;;;;;;;;;11.09;73.62;99923.94;7370692;19;19946;-62
2023/11/27 10:08:33;;;;;;;;;;;;;;;11.10;73.61;99923.06;7370339;19;19942;-61
2023/11/27 10:10:58;;;;;;;;;;;;;;;11.11;73.30;99931.75;7371452;19;20354;-62
2023/11/27 10:13:34;;;;;;;;;;;;;;;11.12;73.37;99934.28;7365476;19;19963;-62
2023/11/27 10:16:02;;;;;;;;;;;;;;;11.10;73.14;99933.50;7370004;19;19938;-62
2023/11/27 10:18:28;;;;;;;;;;;;;;;11.06;73.41;99938.91;7365592;19;19930;-61
2023/11/27 10:20:54;;;;;;;;;;;;;;;11.10;73.38;99946.56;7369665;19;20238;-61
2023/11/27 10:23:20;;;;;;;;;;;;;;;11.10;72.97;99950.91;7365108;19;19926;-62
2023/11/27 10:25:45;;;;;;;;;;;;;;;11.09;73.23;99960.53;7367926;19;19922;-63
2023/11/27 10:28:11;;;;;;;;;;;;;;;11.08;73.03;99964.03;7362466;19;19926;-62
2023/11/27 10:30:36;;;;;;;;;;;;;;;11.08;72.85;99964.03;7369287;19;19914;-62
2023/11/27 10:33:01;;;;;;;;;;;;;;;11.07;72.83;99961.50;7367376;19;19918;-61
2023/11/27 10:35:27;;;;;;;;;;;;;;;11.06;72.97;99967.63;7376660;19;20272;-62
2023/11/27 10:37:54;;;;;;;;;;;;;;;11.04;72.60;99972.91;7370831;19;19953;-61
2023/11/27 10:40:20;;;;;;;;;;;;;;;11.01;73.02;99967.81;7369243;19;19919;-62
2023/11/27 10:42:49;;;;;;;;;;;;;;;10.99;72.69;99980.06;7366783;19;20046;-62
2023/11/27 10:45:15;;;;;;;;;;;;;;;10.95;72.53;99975.88;7362165;19;19914;-62
2023/11/27 10:47:43;;;;;;;;;;;;;;;10.93;72.46;99982.03;7366572;19;19922;-62
2023/11/27 10:50:08;;;;;;;;;;;;;;;10.90;72.51;99976.03;7365843;19;19918;-62
2023/11/27 10:52:33;;;;;;;;;;;;;;;10.88;72.81;99987.41;7372560;19;19929;-62
2023/11/27 10:54:59;;;;;;;;;;;;;;;10.85;72.52;99984.94;7375358;19;19936;-62
2023/11/27 10:57:27;;;;;;;;;;;;;;;10.83;72.81;99984.13;7365642;19;19930;-61
2023/11/27 10:59:52;;;;;;;;;;;;;;;10.79;72.79;99995.56;7362324;19;19921;-62
2023/11/27 11:02:21;;;;;;;;;;;;;;;10.78;72.80;99996.50;7370213;19;20443;-62
2023/11/27 11:04:55;;;;;;;;;;;;;;;10.79;72.56;100003.41;7369177;19;20860;-62
2023/11/27 11:07:33;;;;;;;;;;;;;;;10.80;73.23;100000.75;7361620;19;19946;-62
2023/11/27 11:09:59;;;;;;;;;;;;;;;10.83;73.29;100008.47;7358033;19;20314;-62
2023/11/27 11:12:27;;;;;;;;;;;;;;;10.86;73.23;100005.78;7364114;19;19919;-62
2023/11/27 11:14:53;;;;;;;;;;;;;;;10.88;72.81;100005.72;7363401;19;19923;-61
2023/11/27 11:17:48;;;;;;;;;;;;;;;10.90;72.85;100011.75;7368329;19;19930;-61
2023/11/27 11:20:28;;;;;;;;;;;;;;;10.91;72.86;100009.06;7363391;19;19935;-62
2023/11/27 11:22:53;;;;;;;;;;;;;;;10.95;73.28;100007.22;7370431;19;19946;-62
2023/11/27 11:25:41;;;;;;;;;;;;;;;10.97;72.96;100013.22;7368195;19;19914;-62
2023/11/27 11:28:31;;;;;;;;;;;;;;;11.01;72.79;100009.59;7364607;19;20419;-62
2023/11/27 11:31:08;;;;;;;;;;;;;;;11.05;72.93;100016.44;7358047;19;20364;-62
2023/11/27 11:33:34;;;;;;;;;;;;;;;11.13;73.39;100022.22;7361013;19;20688;-62
2023/11/27 11:35:59;;;;;;;;;;;;;;;11.24;73.61;100028.81;7363694;19;19921;-62
2023/11/27 11:38:25;;;;;;;;;;;;;;;11.38;73.59;100034.41;7362698;19;19923;-62
2023/11/27 11:40:51;;;;;;;;;;;;;;;11.61;74.47;100038.78;7364392;19;19915;-61
2023/11/27 11:43:17;;;;;;;;;;;;;;;11.87;75.26;100037.84;7366847;19;19926;-62
2023/11/27 11:45:43;;;;;;;;;;;;;;;12.20;75.30;100036.50;7368227;19;19961;-62
2023/11/27 11:48:12;;;;;;;;;;;;;;;12.58;75.50;100035.88;7366738;19;19922;-61
2023/11/27 11:50:41;;;;;;;;;;;;;;;12.98;75.74;100035.88;7367611;19;19919;-62
2023/11/27 11:53:22;;;;;;;;;;;;;;;13.38;75.51;100028.91;7365020;19;19961;-61
2023/11/27 11:55:48;;;;;;;;;;;;;;;13.83;75.30;100034.72;7363681;19;19915;-62
2023/11/27 11:58:19;;;;;;;;;;;;;;;14.22;74.64;100048.59;7363158;19;19927;-62
2023/11/27 12:00:45;;;;;;;;;;;;;;;14.57;74.27;100038.19;7359629;19;19923;-62
2023/11/27 12:03:17;;;;;;;;;;;;;;;14.87;73.71;100040.19;7360913;19;19939;-62
2023/11/27 12:05:46;;;;;;;;;;;;;;;15.13;73.54;100038.84;7362119;19;20229;-63
2023/11/27 12:08:12;;;;;;;;;;;;;;;15.36;72.91;100035.88;7362873;19;19930;-62
2023/11/27 12:10:38;;;;;;;;;;;;;;;15.54;72.06;100049.81;7363306;19;19929;-63
2023/11/27 12:13:06;;;;;;;;;;;;;;;15.73;72.00;100047.91;7361213;19;20343;-62
2023/11/27 12:15:32;;;;;;;;;;;;;;;15.92;71.93;100046.94;7360810;19;19974;-62
2023/11/27 12:17:58;;;;;;;;;;;;;;;16.12;71.53;100048.44;7362041;19;19995;-62
2023/11/27 12:20:23;;;;;;;;;;;;;;;16.30;71.18;100050.88;7359604;19;20055;-63
2023/11/27 12:22:48;;;;;;;;;;;;;;;16.48;71.28;100051.63;7363772;19;19930;-62
2023/11/27 12:25:18;;;;;;;;;;;;;;;16.66;70.11;100043.59;7363150;19;19914;-62
2023/11/27 12:27:43;;;;;;;;;;;;;;;16.89;70.33;100060.75;7364622;19;19932;-62
2023/11/27 12:30:09;;;;;;;;;;;;;;;17.04;70.35;100051.91;7362121;19;20588;-62
2023/11/27 12:32:34;;;;;;;;;;;;;;;17.14;68.97;100058.34;7357674;19;19986;-62
2023/11/27 12:34:59;;;;;;;;;;;;;;;17.19;68.83;100058.91;7363410;19;19925;-62
2023/11/27 12:37:28;;;;;;;;;;;;;;;17.20;68.51;100063.25;7358642;19;19919;-61
2023/11/27 12:39:54;;;;;;;;;;;;;;;17.15;67.97;100062.66;7362524;19;19951;-62